Tiempo atmosférico en la estación meteorológica de Larraga, Navarra (375 m.)



Fecha
DESCASC
Temp. máxima en grados centígrados (hora)
DESCASC
Temp. mínima en grados centígrados (hora)
DESCASC
Temp. media en grados centígrados
DESCASC
Racha de viento máxima en m/sg (hora)
DESCASC
Velocidad máxima media en intervalos de 10 minutos(hora)
DESCASC
Precipitaciones diarias en mm
DESCASC
Precipitaciones de 00:00 a 06:00 en mm
DESCASC
Precipitaciones de 06:00 a 12:00 en mm
DESCASC
Precipitaciones de 12:00 a 18:00 en mm
DESCASC
Precipitaciones de 18:00 a 24:00 en mm
DESCASC
25-04-2019 16.8 (16:20) 5.8 (07:10) 11.3 15.83 (19:00) 9.72 (01:30) 2.2 2 0 0 0.2
24-04-2019 12.4 (14:50) 5.1 (07:20) 8.7 24.72 (17:20) 17.5 (18:10) 6 0 0 0.2 5.8
23-04-2019 17.3 (12:40) 8.6 (23:50) 12.9 15 (14:50) 9.44 (13:10) 0.2 0 0 0 0.2
22-04-2019 19.6 (15:10) 7.6 (00:00) 13.6 11.11 (19:30) 8.33 (17:30) 0 0 0 0 0
21-04-2019 14.4 (17:50) 9.5 (00:00) 11.9 6.67 (13:30) 5 (00:50) 0 0 0 0 0
20-04-2019 22.4 (17:30) 6.6 (00:00) 14.5 9.44 (20:10) 6.11 (20:10) 1.6 0 0 0 1.6
19-04-2019 21 (17:10) 10.2 (00:00) 15.6 14.72 (18:20) 10 (13:30) 1.4 1.2 0.2 0 0
18-04-2019 18.8 (16:00) 10.5 (00:00) 14.6 16.11 (16:40) 11.67 (16:20) 0 0 0 0 0
17-04-2019 19.8 (17:00) 9.7 (00:00) 14.7 16.39 (14:20) 11.11 (22:40) 0 0 0 0 0
16-04-2019 19.4 (17:40) 7.5 (00:00) 13.4 7.5 (18:50) 5.28 (18:50) 0.6 0.6 0 0 0
15-04-2019 22.1 (16:20) 7.7 (00:00) 14.9 18.61 (17:10) 14.17 (17:10) 26.1 0 0 0.2 25.9
14-04-2019 23.1 (15:30) 6.2 (00:00) 14.7 10.83 (17:20) 7.78 (17:20) 0 0 0 0 0
13-04-2019 22.6 (18:20) 0.6 (00:00) 11.6 6.94 (20:10) 4.72 (01:20) 0 0 0 0 0
12-04-2019 15.9 (16:00) 5.4 (00:00) 10.6 16.11 (18:20) 9.17 (13:50) 0 0 0 0 0
11-04-2019 13.3 (16:40) 4.6 (00:00) 9 14.17 (16:20) 10 (16:10) 0 0 0 0 0
10-04-2019 15 (16:20) 5 (00:00) 10 13.33 (19:10) 10 (19:10) 0.2 0 0 0.2 0
09-04-2019 16.4 (14:30) 1.1 (00:00) 8.7 12.5 (13:20) 8.06 (19:20) 0.6 0 0 0 0.6
08-04-2019 14.2 (15:20) 6.8 (00:00) 10.5 9.17 (16:40) 6.39 (18:00) 1.4 0 1 0 0.4
07-04-2019 14.1 (18:00) 5.2 (00:00) 9.7 8.89 (14:40) 5.83 (12:50) 0.8 0.8 0 0 0
06-04-2019 13.6 (13:00) 2.8 (00:00) 8.2 14.17 (21:00) 9.72 (21:00) 0.2 0 0 0 0.2
05-04-2019 13.1 (17:00) 5.4 (00:00) 9.3 16.94 (11:20) 11.94 (11:20) 8.4 0 0 0 8.4
04-04-2019 14.2 (16:10) 0.6 (00:00) 7.4 10.83 (22:10) 6.94 (23:30) 0 0 0 0 0
03-04-2019 11.6 (15:30) 2.4 (00:00) 7 15.83 (15:50) 11.39 (16:00) 2.8 0 2.6 0.2 0
02-04-2019 18.5 (16:40) 4.1 (00:00) 11.3 11.11 (20:30) 8.06 (20:30) 0 0 0 0 0
01-04-2019 15 (16:20) 7.7 (00:00) 11.3 6.94 (13:50) 4.44 (13:10) 1.8 1.4 0.2 0 0.2
31-03-2019 17.2 (16:00) 1.3 (00:00) 9.3 10.28 (16:50) 7.22 (17:00) 0 0 0 0 0
30-03-2019 18.5 (15:40) 2.2 (00:00) 10.4 12.22 (17:20) 6.94 (14:00) 0 0 0 0 0
29-03-2019 19.4 (15:40) 1.3 (00:00) 10.3 15.56 (17:20) 10 (16:00) 0 0 0 0 0
28-03-2019 18.3 (15:50) 4.3 (00:00) 11.3 11.11 (02:20) 6.67 (02:00) 0 0 0 0 0
27-03-2019 18.1 (14:40) 0.8 (00:00) 9.5 14.72 (16:40) 11.11 (16:50) 0 0 0 0 0

Gráficas

Temp. máximas Temp. mínimas Temp. medias Precipitaciones Rachas de viento máximas Velocidades máximas media en intervalos de 10 minutos

Datos horarios

Fecha y hora oficial Temperatura (ºC) Velocidad del viento (km/h) Dirección del viento Racha (km/h) Dirección de racha Precipitación (mm) Presión (hPa) Tendencia (hPa) Humedad (%)
2019-04-25 23:00:00 9.5 5 Sur 13 Oeste 0 -- -- 70
2019-04-25 22:00:00 10 8 Sudoeste 15 Oeste 0 -- -- 68
2019-04-25 21:00:00 10.9 3 Sudoeste 13 Oeste 0 -- -- 61
2019-04-25 20:00:00 12.9 0 Calma 47 Oeste 0 -- -- 64
2019-04-25 19:00:00 12.3 28 Oeste 57 Oeste 0.2 -- -- 66
2019-04-25 18:00:00 15.2 5 Oeste 17 Oeste 0 -- -- 52
2019-04-25 17:00:00 16 6 Sudoeste 20 Oeste 0 -- -- 50
2019-04-25 16:00:00 15.2 7 Sudoeste 28 Oeste 0 -- -- 53
2019-04-25 15:00:00 15.8 11 Sudoeste 29 Oeste 0 -- -- 47
2019-04-25 14:00:00 16 9 Sudoeste 26 Sudoeste 0 -- -- 46
2019-04-25 13:00:00 14.4 9 Sur 23 Sur 0 -- -- 51
2019-04-25 12:00:00 14.6 16 Sur 27 Sur 0 -- -- 51
2019-04-25 11:00:00 12.9 18 Sur 33 Sur 0 -- -- 55
2019-04-25 10:00:00 12.5 16 Sur 24 Sur 0 -- -- 64
2019-04-25 09:00:00 9.5 3 Este 10 Este 0 -- -- 80
2019-04-25 08:00:00 6.8 3 Sudeste 9 Sudeste 0 -- -- 87
2019-04-25 07:00:00 5.9 0 Calma 15 Oeste 0 -- -- 89
2019-04-25 06:00:00 7.6 11 Oeste 20 Sudoeste 0 -- -- 86
2019-04-25 05:00:00 9.2 6 Sudoeste 22 Sur 0 -- -- 89
2019-04-25 04:00:00 9.5 4 Sur 13 Sudeste 0.2 -- -- 94
2019-04-25 03:00:00 9.8 9 Sur 34 Sudeste 1.2 -- -- 93
2019-04-25 02:00:00 10.2 25 Sudeste 45 Sudeste 0.6 -- -- 89
2019-04-25 01:00:00 9.5 21 Sudeste 39 Sudeste 0 -- -- 88
2019-04-25 00:00:00 9.8 22 Sudeste 39 Sudeste 0 -- -- 90
2019-04-24 23:00:00 9.9 26 Sudeste 35 Sudeste 0 -- -- 92
2019-04-24 22:00:00 9.9 19 Sudeste 42 Sudeste 4.2 -- -- 93
2019-04-24 21:00:00 9.7 37 Sudeste 67 Sudeste 1.6 -- -- 92
2019-04-24 20:00:00 9.9 49 Sudeste 78 Sudeste 0 -- -- 87
2019-04-24 19:00:00 10.4 58 Sudeste 86 Sudeste 0 -- -- 82
2019-04-24 18:00:00 11.2 59 Sudeste 89 Sudeste 0 -- -- 71
2019-04-24 17:00:00 10.2 47 Sudeste 86 Sudeste 0 -- -- 78
2019-04-24 16:00:00 11 50 Sudeste 66 Sudeste 0 -- -- 67
2019-04-24 15:00:00 11.8 40 Sudeste 69 Sur 0 -- -- 64
2019-04-24 14:00:00 11.3 38 Sudeste 60 Sudeste 0 -- -- 65
2019-04-24 13:00:00 9.2 27 Sudeste 56 Sudeste 0.2 -- -- 77
2019-04-24 12:00:00 9.6 44 Sur 58 Sur 0 -- -- 70
2019-04-24 11:00:00 9.5 30 Sudeste 42 Sur 0 -- -- 65
2019-04-24 10:00:00 9 28 Sudeste 41 Sudeste 0 -- -- 72
2019-04-24 09:00:00 8.2 22 Sudeste 32 Sudeste 0 -- -- 87
2019-04-24 08:00:00 6.2 12 Sudeste 19 Sudeste 0 -- -- 93
2019-04-24 07:00:00 5.3 9 Sudeste 13 Sudeste 0 -- -- 91
2019-04-24 06:00:00 6.4 3 Sudeste 5 Sur 0 -- -- 84
2019-04-24 05:00:00 7.6 0 Calma 5 Sudeste 0 -- -- 82
2019-04-24 04:00:00 7.6 3 Sur 8 Este 0 -- -- 84
2019-04-24 03:00:00 7.7 4 Sudeste 6 Sur 0 -- -- 87
2019-04-24 02:00:00 7.9 2 Sur 8 Sudoeste 0 -- -- 88
2019-04-24 01:00:00 8.5 5 Sudoeste 8 Sudoeste 0 -- -- 83
2019-04-24 00:00:00 8.7 5 Sudoeste 6 Sudoeste 0 -- -- 78
2019-04-23 23:00:00 9.2 6 Sur 12 Sur 0 -- -- 89
2019-04-23 22:00:00 9.9 3 Sudeste 9 Norte 0 -- -- 83
2019-04-23 21:00:00 10.5 3 Norte 16 Oeste 0 -- -- 82
2019-04-23 20:00:00 11.3 10 Oeste 24 Oeste 0.2 -- -- 83
2019-04-23 19:00:00 12.8 6 Sudoeste 19 Oeste 0 -- -- 77
2019-04-23 18:00:00 14.3 0 Calma 13 Oeste 0 -- -- 72
2019-04-23 17:00:00 13.7 8 Sudoeste 36 Sur 0 -- -- 72
2019-04-23 16:00:00 14.8 27 Sudeste 47 Sur 0 -- -- 66
2019-04-23 15:00:00 15.6 33 Sur 54 Sur 0 -- -- 58
2019-04-23 14:00:00 16.9 25 Sudeste 48 Sudeste 0 -- -- 56
2019-04-23 13:00:00 16.7 30 Sudeste 44 Sudeste 0 -- -- 59
2019-04-23 12:00:00 16 30 Sudeste 48 Sudeste 0 -- -- 65
2019-04-23 11:00:00 15 30 Sudeste 42 Sudeste 0 -- -- 69
2019-04-23 10:00:00 13.5 28 Sudeste 36 Sudeste 0 -- -- 74
2019-04-23 09:00:00 11.5 17 Sudeste 27 Sudeste 0 -- -- 81
2019-04-23 08:00:00 10.6 15 Sudeste 25 Sudeste 0 -- -- 83
2019-04-23 07:00:00 10.2 17 Sudeste 25 Sudeste 0 -- -- 83
2019-04-23 06:00:00 10 8 Sudeste 23 Sudeste 0 -- -- 83
2019-04-23 05:00:00 10.6 19 Sudeste 35 Sudeste 0 -- -- 81
2019-04-23 04:00:00 11.8 27 Sudeste 41 Sudeste 0 -- -- 74
2019-04-23 03:00:00 12.4 30 Sudeste 42 Sudeste 0 -- -- 72
2019-04-23 02:00:00 12.5 28 Sudeste 42 Sudeste 0 -- -- 71
2019-04-23 01:00:00 13.5 24 Sudeste 32 Sudeste 0 -- -- 66
2019-04-23 00:00:00 13.4 21 Sudeste 32 Sudeste 0 -- -- 68
2019-04-22 23:00:00 14.3 27 Sudeste 34 Sudeste 0 -- -- 63
2019-04-22 22:00:00 14.7 23 Sudeste 39 Sudeste 0 -- -- 60
2019-04-22 21:00:00 15.9 25 Sudeste 37 Sudeste 0 -- -- 52
2019-04-22 20:00:00 17.1 24 Sudeste 40 Sudeste 0 -- -- 50
2019-04-22 19:00:00 17.6 26 Sudeste 39 Sudeste 0 -- -- 51
2019-04-22 18:00:00 18.7 25 Sudeste 39 Sur 0 -- -- 47
2019-04-22 17:00:00 18.8 21 Sudeste 37 Sudeste 0 -- -- 50
2019-04-22 16:00:00 18.5 24 Sudeste 37 Sur 0 -- -- 46
2019-04-22 15:00:00 19.4 18 Sur 32 Sudeste 0 -- -- 45
2019-04-22 14:00:00 18.9 15 Sur 26 Sudeste 0 -- -- 44
2019-04-22 13:00:00 18.4 8 Sur 16 Sur 0 -- -- 48
2019-04-22 12:00:00 16.2 4 Sur 9 Oeste 0 -- -- 63
2019-04-22 11:00:00 13.8 3 Noroeste 10 Norte 0 -- -- 72
2019-04-22 10:00:00 11.5 4 Noroeste 9 Noroeste 0 -- -- 83
2019-04-22 09:00:00 8.8 0 Calma 9 Noroeste 0 -- -- 92
2019-04-22 08:00:00 7.7 5 Noroeste 7 Noroeste 0 -- -- 93
2019-04-22 07:00:00 7.7 6 Noroeste 15 Noroeste 0 -- -- 93
2019-04-22 06:00:00 8.6 2 Noroeste 10 Noroeste 0 -- -- 89
2019-04-22 05:00:00 8.3 10 Noroeste 12 Noroeste 0 -- -- 91
2019-04-22 04:00:00 9.4 8 Norte 15 Norte 0 -- -- 86
2019-04-22 03:00:00 10.2 7 Norte 12 Noroeste 0 -- -- 86
2019-04-22 02:00:00 10.6 7 Noroeste 11 Noroeste 0 -- -- 83
2019-04-22 01:00:00 10.6 7 Noroeste 11 Noroeste 0 -- -- 84
2019-04-22 00:00:00 11.1 7 Noroeste 22 Norte 0 -- -- 82
2019-04-21 23:00:00 11.7 7 Norte 13 Norte 0 -- -- 76
2019-04-21 22:00:00 12.2 5 Noroeste 12 Noroeste 0 -- -- 76
2019-04-21 21:00:00 12.9 8 Norte 13 Norte 0 -- -- 72
2019-04-21 20:00:00 13.7 0 Calma 6 Noroeste 0 -- -- 75
2019-04-21 19:00:00 13.6 4 Norte 13 Noroeste 0 -- -- 68
2019-04-21 18:00:00 14.3 9 Norte 13 Norte 0 -- -- 64
2019-04-21 17:00:00 14.1 8 Norte 11 Noroeste 0 -- -- 64
2019-04-21 16:00:00 13.9 9 Norte 18 Noroeste 0 -- -- 66
2019-04-21 15:00:00 13 12 Norte 22 Noroeste 0 -- -- 71
2019-04-21 14:00:00 13.5 15 Noroeste 24 Noroeste 0 -- -- 73
2019-04-21 13:00:00 12.8 8 Norte 14 Noroeste 0 -- -- 77
2019-04-21 12:00:00 11.6 9 Noroeste 13 Noroeste 0 -- -- 81
2019-04-21 11:00:00 10.5 8 Norte 14 Norte 0 -- -- 87
2019-04-21 10:00:00 9.9 8 Norte 15 Noroeste 0 -- -- 90
2019-04-21 09:00:00 9.7 9 Noroeste 12 Noroeste 0 -- -- 92
2019-04-21 08:00:00 9.5 2 Sur 5 Sur 0 -- -- 90
2019-04-21 07:00:00 9.7 2 Nordeste 4 Nordeste 0 -- -- 88
2019-04-21 06:00:00 9.7 0 Calma 5 Este 0 -- -- 85
2019-04-21 05:00:00 9.7 5 Sudeste 10 Este 0 -- -- 86
2019-04-21 04:00:00 10.1 6 Este 8 Este 0 -- -- 84
2019-04-21 03:00:00 10.1 10 Sudeste 19 Sudeste 0 -- -- 81
2019-04-21 02:00:00 10.4 11 Sudeste 24 Sudeste 0 -- -- 81
2019-04-21 01:00:00 10.7 17 Sudeste 23 Sudeste 0 -- -- 80
2019-04-21 00:00:00 11.4 15 Sudeste 22 Sudeste 0 -- -- 80
2019-04-20 23:00:00 11.9 9 Sudeste 21 Nordeste 1 -- -- 82
2019-04-20 22:00:00 13.6 11 Nordeste 32 Sur 0.6 -- -- 79
2019-04-20 21:00:00 15.3 19 Este 34 Norte 0 -- -- 68
2019-04-20 20:00:00 17.9 21 Norte 32 Norte 0 -- -- 62
2019-04-20 19:00:00 20 6 Oeste 17 Sur 0 -- -- 43
2019-04-20 18:00:00 21.6 10 Oeste 19 Sur 0 -- -- 40
2019-04-20 17:00:00 22.3 9 Sudoeste 21 Sur 0 -- -- 38
2019-04-20 16:00:00 22 7 Sudoeste 15 Norte 0 -- -- 39
2019-04-20 15:00:00 20.3 5 Norte 14 Noroeste 0 -- -- 43
2019-04-20 14:00:00 19.7 5 Noroeste 30 Noroeste 0 -- -- 42
2019-04-20 13:00:00 19.6 7 Sudeste 16 Sudeste 0 -- -- 38
2019-04-20 12:00:00 18.6 7 Sur 13 Sur 0 -- -- 37
2019-04-20 11:00:00 16.8 5 Este 16 Este 0 -- -- 51
2019-04-20 10:00:00 12.5 0 Calma 10 Sur 0 -- -- 66
2019-04-20 09:00:00 8.2 0 Calma 7 Sur 0 -- -- 91
2019-04-20 08:00:00 7.4 3 Norte 6 Norte 0 -- -- 84
2019-04-20 07:00:00 6.7 0 Calma 8 Norte 0 -- -- 86
2019-04-20 06:00:00 7.3 8 Norte 10 Norte 0 -- -- 85
2019-04-20 05:00:00 8 4 Noroeste 9 Noroeste 0 -- -- 83
2019-04-20 04:00:00 9.5 5 Norte 14 Norte 0 -- -- 81
2019-04-20 03:00:00 9.8 10 Norte 13 Norte 0 -- -- 81
2019-04-20 02:00:00 11.2 8 Noroeste 10 Norte 0 -- -- 75
2019-04-20 01:00:00 12.2 5 Norte 14 Noroeste 0 -- -- 71
2019-04-20 00:00:00 12.5 6 Noroeste 8 Noroeste 0 -- -- 72
2019-04-19 23:00:00 13.9 2 Oeste 12 Noroeste 0 -- -- 66
2019-04-19 22:00:00 15.5 8 Sudeste 15 Sudeste 0 -- -- 57
2019-04-19 21:00:00 15.6 12 Sudeste 15 Sudeste 0 -- -- 61
2019-04-19 20:00:00 17.4 9 Sudeste 30 Sudeste 0 -- -- 59
2019-04-19 19:00:00 19 21 Sudeste 53 Sudeste 0 -- -- 50
2019-04-19 18:00:00 19.8 27 Sudeste 40 Sudeste 0 -- -- 48
2019-04-19 17:00:00 20.7 21 Sudeste 47 Sudeste 0 -- -- 49
2019-04-19 16:00:00 19.8 30 Sudeste 43 Este 0 -- -- 50
2019-04-19 15:00:00 18.5 23 Sudeste 53 Este 0 -- -- 52
2019-04-19 14:00:00 17.8 29 Sudeste 48 Este 0 -- -- 55
2019-04-19 13:00:00 16.4 28 Sudeste 44 Sudeste 0 -- -- 57
2019-04-19 12:00:00 15.8 5 Este 18 Este 0 -- -- 64
2019-04-19 11:00:00 13.9 10 Norte 14 Noroeste 0 -- -- 72
2019-04-19 10:00:00 11.7 4 Norte 9 Noroeste 0 -- -- 87
2019-04-19 09:00:00 10.6 4 Noroeste 8 Noroeste 0 -- -- 93
2019-04-19 08:00:00 10.3 4 Noroeste 6 Noroeste 0.2 -- -- 92
2019-04-19 07:00:00 10.4 3 Norte 4 Norte 0 -- -- 91
2019-04-19 06:00:00 10.4 0 Calma 10 Noroeste 0 -- -- 91
2019-04-19 05:00:00 10.5 3 Oeste 13 Sudoeste 0.8 -- -- 92
2019-04-19 04:00:00 10.8 6 Sudoeste 13 Sudoeste 0.4 -- -- 91
2019-04-19 03:00:00 11.4 7 Sur 28 Sudeste 0 -- -- 87
2019-04-19 02:00:00 13.1 15 Sudeste 41 Sudeste 0 -- -- 65
2019-04-19 01:00:00 14.3 22 Sudeste 40 Sudeste 0 -- -- 61
2019-04-19 00:00:00 14.8 22 Sudeste 33 Este 0 -- -- 59
2019-04-18 23:00:00 15.1 15 Este 23 Sudeste 0 -- -- 58
2019-04-18 22:00:00 15.3 10 Este 20 Este 0 -- -- 58
2019-04-18 21:00:00 15.2 6 Nordeste 9 Nordeste 0 -- -- 58
2019-04-18 20:00:00 15.1 5 Nordeste 28 Sudeste 0 -- -- 60
2019-04-18 19:00:00 16.1 23 Sudeste 48 Sudeste 0 -- -- 52
2019-04-18 18:00:00 16.3 27 Sudeste 45 Sudeste 0 -- -- 52
2019-04-18 17:00:00 17.2 37 Sudeste 58 Sudeste 0 -- -- 50
2019-04-18 16:00:00 18.8 32 Sudeste 44 Sudeste 0 -- -- 48
2019-04-18 15:00:00 18.7 33 Sudeste 49 Sudeste 0 -- -- 50
2019-04-18 14:00:00 16.6 29 Sudeste 41 Sudeste 0 -- -- 56
2019-04-18 13:00:00 15 17 Sudeste 26 Sur 0 -- -- 70
2019-04-18 12:00:00 12.1 3 Oeste 15 Sudeste 0 -- -- 82
2019-04-18 11:00:00 11.6 13 Sudeste 22 Sudeste 0 -- -- 83
2019-04-18 10:00:00 11.8 11 Sudeste 25 Sudeste 0 -- -- 81
2019-04-18 09:00:00 11.3 14 Sudeste 25 Sur 0 -- -- 82
2019-04-18 08:00:00 11 17 Sudeste 32 Sudeste 0 -- -- 83
2019-04-18 07:00:00 11.2 23 Sudeste 35 Sudeste 0 -- -- 81
2019-04-18 06:00:00 10.9 8 Sudeste 20 Sudeste 0 -- -- 83
2019-04-18 05:00:00 10.9 12 Sudeste 24 Sudeste 0 -- -- 80
2019-04-18 04:00:00 10.6 7 Sudeste 41 Sudeste 0 -- -- 77
2019-04-18 03:00:00 12.3 34 Sudeste 49 Sudeste 0 -- -- 69
2019-04-18 02:00:00 12.7 30 Sudeste 50 Sudeste 0 -- -- 65
2019-04-18 01:00:00 13.3 31 Sudeste 46 Sudeste 0 -- -- 62
2019-04-18 00:00:00 14 28 Sudeste 49 Sudeste 0 -- -- 66
2019-04-17 23:00:00 15.2 35 Sudeste 55 Sudeste 0 -- -- 63
2019-04-17 22:00:00 16.3 31 Sudeste 51 Sudeste 0 -- -- 60
2019-04-17 21:00:00 16.9 32 Sudeste 54 Sudeste 0 -- -- 57
2019-04-17 20:00:00 18.1 31 Sudeste 51 Sudeste 0 -- -- 58
2019-04-17 19:00:00 18.2 35 Sudeste 54 Sudeste 0 -- -- 58
2019-04-17 18:00:00 18.5 32 Sudeste 59 Sudeste 0 -- -- 57
2019-04-17 17:00:00 19.8 37 Sudeste 52 Sudeste 0 -- -- 53
2019-04-17 16:00:00 19.1 35 Sudeste 50 Sudeste 0 -- -- 56
2019-04-17 15:00:00 17.9 35 Sudeste 59 Sudeste 0 -- -- 60
2019-04-17 14:00:00 16.7 28 Sudeste 41 Sur 0 -- -- 64
2019-04-17 13:00:00 14.9 21 Sudeste 31 Sudeste 0 -- -- 71
2019-04-17 12:00:00 14.2 18 Sudeste 42 Sudeste 0 -- -- 73
2019-04-17 11:00:00 12.6 17 Sudeste 45 Sudeste 0 -- -- 76
2019-04-17 10:00:00 11.5 27 Sudeste 41 Sudeste 0 -- -- 77
2019-04-17 09:00:00 10.4 33 Sudeste 46 Sudeste 0 -- -- 80
2019-04-17 08:00:00 10 29 Sudeste 40 Sudeste 0 -- -- 82
2019-04-17 07:00:00 9.7 21 Sudeste 39 Sudeste 0 -- -- 78
2019-04-17 06:00:00 9.7 16 Sudeste 23 Sudeste 0 -- -- 79
2019-04-17 05:00:00 10.6 13 Sudeste 35 Sudeste 0 -- -- 71
2019-04-17 04:00:00 11.1 21 Sudeste 36 Sudeste 0 -- -- 64
2019-04-17 03:00:00 11.1 12 Sudeste 22 Sudeste 0 -- -- 69
2019-04-17 02:00:00 11.5 17 Sudeste 30 Sudeste 0 -- -- 73
2019-04-17 01:00:00 11.9 16 Sudeste 30 Sudeste 0 -- -- 78
2019-04-17 00:00:00 11.8 12 Sudeste 18 Sudeste 0 -- -- 75
2019-04-16 23:00:00 12.5 11 Sudeste 19 Sudeste 0 -- -- 74
2019-04-16 22:00:00 13.6 4 Sudeste 13 Sudeste 0 -- -- 69
2019-04-16 21:00:00 14.7 8 Sudeste 17 Sudeste 0 -- -- 66
2019-04-16 20:00:00 16.8 15 Sudeste 25 Sudeste 0 -- -- 61
2019-04-16 19:00:00 18.7 18 Sudeste 27 Sudeste 0 -- -- 49
2019-04-16 18:00:00 18.8 17 Sudeste 25 Sudeste 0 -- -- 48
2019-04-16 17:00:00 19.1 10 Sudeste 21 Sudeste 0 -- -- 44
2019-04-16 16:00:00 18.3 4 Este 13 Sudeste 0 -- -- 50
2019-04-16 15:00:00 17.2 6 Sudoeste 13 Oeste 0 -- -- 57
2019-04-16 14:00:00 16 4 Oeste 13 Noroeste 0 -- -- 58
2019-04-16 13:00:00 14.7 4 Noroeste 12 Noroeste 0 -- -- 59
2019-04-16 12:00:00 13.7 4 Oeste 16 Norte 0 -- -- 67
2019-04-16 11:00:00 12.7 6 Norte 16 Norte 0 -- -- 70
2019-04-16 10:00:00 11.4 9 Norte 15 Noroeste 0 -- -- 80
2019-04-16 09:00:00 9.2 6 Norte 8 Noroeste 0 -- -- 89
2019-04-16 08:00:00 7.5 6 Noroeste 10 Noroeste 0 -- -- 91
2019-04-16 07:00:00 8.4 4 Norte 14 Noroeste 0 -- -- 90
2019-04-16 06:00:00 9.2 6 Noroeste 9 Noroeste 0 -- -- 89
2019-04-16 05:00:00 9.6 5 Noroeste 7 Noroeste 0 -- -- 89
2019-04-16 04:00:00 10 5 Noroeste 8 Noroeste 0 -- -- 94
2019-04-16 03:00:00 10.1 4 Oeste 12 Norte 0 -- -- 94
2019-04-16 02:00:00 10.2 9 Norte 14 Norte 0.2 -- -- 93
2019-04-16 01:00:00 10.3 8 Norte 15 Norte 0.4 -- -- 93
2019-04-16 00:00:00 10.2 12 Norte 24 Nordeste 1.8 -- -- 94
2019-04-15 23:00:00 10.6 12 Nordeste 26 Norte 6 -- -- 95
2019-04-15 22:00:00 12.1 13 Nordeste 28 Noroeste 1.8 -- -- 90
2019-04-15 21:00:00 13.4 10 Oeste 28 Noroeste 7.4 -- -- 93
2019-04-15 20:00:00 14 13 Noroeste 41 Oeste -- -- -- 88
2019-04-15 19:00:00 16.9 25 Sudeste 48 Sudeste 4.6 -- -- 70
2019-04-15 18:00:00 -- 27 Sudeste 67 Sudeste 0.2 -- -- --
2019-04-15 17:00:00 21.8 48 Sudeste 66 Sudeste 0 -- -- 47
2019-04-15 16:00:00 20.9 44 Sudeste 60 Sudeste 0 -- -- 49
2019-04-15 15:00:00 19.7 39 Sudeste 55 Sudeste 0 -- -- 53
2019-04-15 14:00:00 19.7 33 Sudeste 57 Sudeste 0 -- -- 54
2019-04-15 13:00:00 18.6 41 Sudeste 55 Sudeste 0 -- -- 59
2019-04-15 12:00:00 17.5 35 Sudeste 48 Sudeste 0 -- -- 64
2019-04-15 11:00:00 15.9 31 Sudeste 40 Sudeste 0 -- -- 69
2019-04-15 10:00:00 12.7 8 Sudeste 16 Sudeste 0 -- -- 84
2019-04-15 09:00:00 10.2 2 Sur 5 Sudoeste 0 -- -- 96
2019-04-15 08:00:00 7.8 4 Noroeste 9 Nordeste 0 -- -- 94
2019-04-15 07:00:00 7.8 7 Nordeste 10 Nordeste 0 -- -- 93
2019-04-15 06:00:00 8.1 3 Noroeste 9 Norte 0 -- -- 90
2019-04-15 05:00:00 9.4 4 Noroeste 10 Noroeste 0 -- -- 92
2019-04-15 04:00:00 9.6 5 Noroeste 12 Norte 0 -- -- 91
2019-04-15 03:00:00 10.4 9 Oeste 14 Sudoeste 0 -- -- 85
2019-04-15 02:00:00 10.4 7 Noroeste 9 Noroeste 0 -- -- 88
2019-04-15 01:00:00 11.2 5 Noroeste 9 Noroeste 0 -- -- 87
2019-04-15 00:00:00 12.6 0 Calma 10 Norte 0 -- -- 80
2019-04-14 23:00:00 14.2 2 Noroeste 15 Norte 0 -- -- 77
2019-04-14 22:00:00 15 7 Nordeste 31 Norte 0 -- -- 76
2019-04-14 21:00:00 16.2 15 Norte 29 Norte 0 -- -- 70
2019-04-14 20:00:00 17.8 22 Norte 31 Norte 0 -- -- 64
2019-04-14 19:00:00 19.4 23 Norte 38 Norte 0 -- -- 57
2019-04-14 18:00:00 21 25 Norte 39 Noroeste 0 -- -- 50
2019-04-14 17:00:00 21.3 26 Noroeste 36 Norte 0 -- -- 49
2019-04-14 16:00:00 21.8 13 Norte 22 Noroeste 0 -- -- 45
2019-04-14 15:00:00 22.7 14 Noroeste 36 Noroeste 0 -- -- 42
2019-04-14 14:00:00 22 13 Noroeste 29 Noroeste 0 -- -- 45
2019-04-14 13:00:00 20.2 6 Noroeste 16 Nordeste 0 -- -- 42
2019-04-14 12:00:00 18.4 5 Norte 15 Sudoeste 0 -- -- 42
2019-04-14 11:00:00 16.1 6 Noroeste 12 Norte 0 -- -- 45
2019-04-14 10:00:00 12.9 5 Norte 10 Norte 0 -- -- 54
2019-04-14 09:00:00 9.5 3 Oeste 5 Oeste 0 -- -- 67
2019-04-14 08:00:00 8.1 0 Calma 9 Noroeste 0 -- -- 67
2019-04-14 07:00:00 7.6 5 Noroeste 8 Norte 0 -- -- 68
2019-04-14 06:00:00 7.4 5 Norte 10 Noroeste 0 -- -- 68
2019-04-14 05:00:00 6.2 3 Norte 9 Noroeste 0 -- -- 69
2019-04-14 04:00:00 7.7 3 Noroeste 10 Sudoeste 0 -- -- 59
2019-04-14 03:00:00 8.4 0 Calma 6 Sudoeste 0 -- -- 55
2019-04-14 02:00:00 9.2 0 Calma 11 Noroeste 0 -- -- 52
2019-04-14 01:00:00 9.3 9 Noroeste 12 Noroeste 0 -- -- 51
2019-04-14 00:00:00 11.3 6 Noroeste 8 Noroeste 0 -- -- 44
2019-04-13 23:00:00 12.7 5 Noroeste 11 Noroeste 0 -- -- 44
2019-04-13 22:00:00 14.6 8 Norte 18 Norte 0 -- -- 37
2019-04-13 21:00:00 16.9 14 Norte 25 Norte 0 -- -- 33
2019-04-13 20:00:00 19.6 15 Norte 24 Norte 0 -- -- 23
2019-04-13 19:00:00 21.8 16 Noroeste 24 Oeste 0 -- -- 18
2019-04-13 18:00:00 22.4 8 Noroeste 17 Noroeste 0 -- -- 14
2019-04-13 17:00:00 21.8 12 Noroeste 19 Oeste 0 -- -- 17
2019-04-13 16:00:00 21.8 12 Oeste 19 Oeste 0 -- -- 15
2019-04-13 15:00:00 21 5 Noroeste 25 Noroeste 0 -- -- 14
2019-04-13 14:00:00 19.9 7 Norte 19 Norte 0 -- -- 17
2019-04-13 13:00:00 18.5 12 Norte 18 Norte 0 -- -- 20
2019-04-13 12:00:00 15.6 6 Noroeste 12 Noroeste 0 -- -- 32
2019-04-13 11:00:00 12 6 Noroeste 9 Noroeste 0 -- -- 44
2019-04-13 10:00:00 8.3 2 Norte 5 Noroeste 0 -- -- 53
2019-04-13 09:00:00 3.7 2 Nordeste 8 Noroeste 0 -- -- 73
2019-04-13 08:00:00 1.7 6 Sudoeste 8 Sudoeste 0 -- -- 76
2019-04-13 07:00:00 3.4 4 Oeste 15 Noroeste 0 -- -- 71
2019-04-13 06:00:00 4.3 8 Noroeste 18 Noroeste 0 -- -- 69
2019-04-13 05:00:00 4.5 5 Noroeste 15 Noroeste 0 -- -- 70
2019-04-13 04:00:00 4.7 4 Oeste 22 Noroeste 0 -- -- 69
2019-04-13 03:00:00 6.2 14 Noroeste 21 Oeste 0 -- -- 66
2019-04-13 02:00:00 5.8 11 Noroeste 25 Noroeste 0 -- -- 69
2019-04-13 01:00:00 7.4 17 Oeste 23 Oeste 0 -- -- 65
2019-04-13 00:00:00 7.2 11 Oeste 26 Noroeste 0 -- -- 69
2019-04-12 23:00:00 8.9 25 Noroeste 36 Noroeste 0 -- -- 61
2019-04-12 22:00:00 9.8 21 Norte 40 Noroeste 0 -- -- 58
2019-04-12 21:00:00 10.8 23 Noroeste 35 Noroeste 0 -- -- 57
2019-04-12 20:00:00 12.9 23 Norte 36 Norte 0 -- -- 51
2019-04-12 19:00:00 14.6 23 Norte 58 Norte 0 -- -- 45
2019-04-12 18:00:00 15.6 22 Norte 39 Noroeste 0 -- -- 44
2019-04-12 17:00:00 15.3 28 Norte 43 Norte 0 -- -- 44
2019-04-12 16:00:00 15.9 20 Norte 40 Norte 0 -- -- 44
2019-04-12 15:00:00 15.4 23 Norte 42 Norte 0 -- -- 45
2019-04-12 14:00:00 14.2 31 Norte 42 Norte 0 -- -- 47
2019-04-12 13:00:00 13.7 26 Norte 43 Norte 0 -- -- 49
2019-04-12 12:00:00 13.5 28 Norte 39 Norte 0 -- -- 49
2019-04-12 11:00:00 13 23 Noroeste 40 Noroeste 0 -- -- 53
2019-04-12 10:00:00 10.9 13 Norte 27 Noroeste 0 -- -- 64
2019-04-12 09:00:00 8 10 Noroeste 14 Noroeste 0 -- -- 81
2019-04-12 08:00:00 5.4 6 Noroeste 17 Noroeste 0 -- -- 88
2019-04-12 07:00:00 5.5 9 Noroeste 27 Oeste 0 -- -- 86
2019-04-12 06:00:00 6.6 8 Oeste 25 Noroeste 0 -- -- 82
2019-04-12 05:00:00 7.6 18 Noroeste 42 Oeste 0 -- -- 80
2019-04-12 04:00:00 8.1 22 Noroeste 32 Noroeste 0 -- -- 77
2019-04-12 03:00:00 7.9 17 Noroeste 24 Noroeste 0 -- -- 78
2019-04-12 02:00:00 5.8 19 Noroeste 37 Noroeste 0 -- -- 87
2019-04-12 01:00:00 6.5 19 Noroeste 24 Oeste 0 -- -- 82
2019-04-12 00:00:00 6.2 4 Noroeste 18 Oeste 0 -- -- 81
2019-04-11 23:00:00 6.3 14 Noroeste 19 Oeste 0 -- -- 78
2019-04-11 22:00:00 7.8 15 Oeste 26 Noroeste 0 -- -- 74
2019-04-11 21:00:00 8.5 17 Noroeste 40 Noroeste 0 -- -- 71
2019-04-11 20:00:00 10.3 24 Noroeste 41 Noroeste 0 -- -- 67
2019-04-11 19:00:00 11 17 Noroeste 35 Noroeste 0 -- -- 72
2019-04-11 18:00:00 11.3 30 Noroeste 47 Noroeste 0 -- -- 70
2019-04-11 17:00:00 12.1 28 Noroeste 51 Noroeste 0 -- -- 64
2019-04-11 16:00:00 12.5 32 Noroeste 48 Noroeste 0 -- -- 63
2019-04-11 15:00:00 11.4 30 Noroeste 41 Noroeste 0 -- -- 65
2019-04-11 14:00:00 11.7 23 Noroeste 41 Noroeste 0 -- -- 68
2019-04-11 13:00:00 11.5 32 Noroeste 42 Oeste 0 -- -- 64
2019-04-11 12:00:00 10 26 Noroeste 37 Noroeste 0 -- -- 70
2019-04-11 11:00:00 9.9 24 Noroeste 36 Noroeste 0 -- -- 68
2019-04-11 10:00:00 9.4 20 Oeste 39 Oeste 0 -- -- 71
2019-04-11 09:00:00 7.1 18 Oeste 25 Oeste 0 -- -- 77
2019-04-11 08:00:00 6.5 16 Oeste 22 Oeste 0 -- -- 78
2019-04-11 07:00:00 6.7 17 Oeste 22 Oeste 0 -- -- 77
2019-04-11 06:00:00 7.3 10 Noroeste 19 Oeste 0 -- -- 82
2019-04-11 05:00:00 7.9 14 Oeste 27 Noroeste 0 -- -- 78
2019-04-11 04:00:00 7.9 20 Oeste 27 Oeste 0 -- -- 75
2019-04-11 03:00:00 8 16 Oeste 32 Oeste 0 -- -- 75
2019-04-11 02:00:00 7.7 17 Oeste 28 Oeste 0 -- -- 74
2019-04-11 01:00:00 8.1 20 Noroeste 28 Noroeste 0 -- -- 72
2019-04-11 00:00:00 6.4 12 Oeste 19 Noroeste 0 -- -- 78
2019-04-10 23:00:00 6.7 12 Noroeste 21 Oeste 0 -- -- 81
2019-04-10 22:00:00 7.9 17 Noroeste 28 Noroeste 0 -- -- 79
2019-04-10 21:00:00 8.8 21 Noroeste 40 Noroeste 0 -- -- 72
2019-04-10 20:00:00 10.5 30 Noroeste 48 Noroeste 0 -- -- 66
2019-04-10 19:00:00 13.2 30 Noroeste 44 Noroeste 0 -- -- 54
2019-04-10 18:00:00 13.7 24 Norte 44 Oeste 0 -- -- 52
2019-04-10 17:00:00 15 26 Noroeste 41 Noroeste 0 -- -- 48
2019-04-10 16:00:00 13.9 27 Noroeste 42 Noroeste 0 -- -- 52
2019-04-10 15:00:00 14.2 24 Norte 35 Norte 0 -- -- 51
2019-04-10 14:00:00 12.3 13 Noroeste 37 Oeste 0 -- -- 66
2019-04-10 13:00:00 10.8 23 Noroeste 32 Noroeste 0.2 -- -- 69
2019-04-10 12:00:00 10.1 17 Noroeste 37 Noroeste 0 -- -- 76
2019-04-10 11:00:00 9.9 22 Noroeste 31 Noroeste 0 -- -- 75
2019-04-10 10:00:00 8.6 11 Noroeste 17 Noroeste 0 -- -- 80
2019-04-10 09:00:00 6.6 8 Noroeste 15 Noroeste 0 -- -- 86
2019-04-10 08:00:00 5.2 6 Noroeste 13 Noroeste 0 -- -- 87
2019-04-10 07:00:00 5.3 8 Norte 14 Noroeste 0 -- -- 87
2019-04-10 06:00:00 5.6 6 Noroeste 9 Noroeste 0 -- -- 87
2019-04-10 05:00:00 5.5 4 Oeste 8 Oeste 0 -- -- 87
2019-04-10 04:00:00 5.6 3 Norte 10 Noroeste 0 -- -- 88
2019-04-10 03:00:00 5.8 6 Norte 19 Oeste 0 -- -- 90
2019-04-10 02:00:00 6.5 9 Oeste 22 Oeste 0 -- -- 87
2019-04-10 01:00:00 7.1 7 Oeste 25 Oeste 0 -- -- 88
2019-04-10 00:00:00 7.7 4 Sudoeste 12 Oeste 0 -- -- 84
2019-04-09 23:00:00 8.2 6 Oeste 19 Oeste 0.2 -- -- 83
2019-04-09 22:00:00 8.7 14 Noroeste 28 Noroeste 0.4 -- -- 80
2019-04-09 21:00:00 9.9 19 Noroeste 30 Noroeste 0 -- -- 68
2019-04-09 20:00:00 11.6 22 Noroeste 42 Oeste 0 -- -- 63
2019-04-09 19:00:00 13.2 16 Oeste 39 Oeste 0 -- -- 57
2019-04-09 18:00:00 15 11 Sudoeste 38 Oeste 0 -- -- 50
2019-04-09 17:00:00 16 6 Sudoeste 25 Oeste 0 -- -- 47
2019-04-09 16:00:00 15.7 8 Oeste 31 Noroeste 0 -- -- 49
2019-04-09 15:00:00 15.8 18 Oeste 33 Oeste 0 -- -- 45
2019-04-09 14:00:00 15.1 17 Oeste 45 Oeste 0 -- -- 51
2019-04-09 13:00:00 15 9 Sudoeste 31 Oeste 0 -- -- 53
2019-04-09 12:00:00 12.7 11 Oeste 22 Oeste 0 -- -- 59
2019-04-09 11:00:00 10.9 5 Sudeste 10 Sur 0 -- -- 73
2019-04-09 10:00:00 8.3 6 Sudeste 10 Sudeste 0 -- -- 89
2019-04-09 09:00:00 4.6 0 Calma 4 Sudeste 0 -- -- 98
2019-04-09 08:00:00 1.2 2 Sur 5 Sudoeste 0 -- -- 93
2019-04-09 07:00:00 2.6 3 Nordeste 5 Norte 0 -- -- 96
2019-04-09 06:00:00 3.3 2 Sudeste 3 Sudeste 0 -- -- 95
2019-04-09 05:00:00 3.2 3 Sur 11 Noroeste 0 -- -- 94
2019-04-09 04:00:00 4.4 4 Norte 9 Noroeste 0 -- -- 93
2019-04-09 03:00:00 5.4 6 Noroeste 9 Noroeste 0 -- -- 91
2019-04-09 02:00:00 6.2 3 Norte 8 Noroeste 0 -- -- 90
2019-04-09 01:00:00 5.9 6 Noroeste 10 Noroeste 0 -- -- 91
2019-04-09 00:00:00 6.8 4 Noroeste 9 Noroeste 0 -- -- 89
2019-04-08 23:00:00 7.7 4 Sudoeste 21 Norte 0 -- -- 83
2019-04-08 22:00:00 9 13 Norte 27 Norte 0 -- -- 77
2019-04-08 21:00:00 10.3 15 Norte 27 Nordeste 0.4 -- -- 80
2019-04-08 20:00:00 11.6 16 Norte 31 Norte 0 -- -- 69
2019-04-08 19:00:00 13.2 20 Norte 31 Norte 0 -- -- 64
2019-04-08 18:00:00 13.5 23 Norte 32 Norte 0 -- -- 66
2019-04-08 17:00:00 13.3 20 Norte 33 Noroeste 0 -- -- 68
2019-04-08 16:00:00 13.8 17 Norte 27 Norte 0 -- -- 70
2019-04-08 15:00:00 13.1 13 Noroeste 22 Noroeste 0 -- -- 72
2019-04-08 14:00:00 12.9 7 Norte 15 Noroeste 0 -- -- 74
2019-04-08 13:00:00 11.6 6 Nordeste 12 Norte 0 -- -- 80
2019-04-08 12:00:00 10.3 3 Este 11 Noroeste 0 -- -- 82
2019-04-08 11:00:00 9 5 Noroeste 10 Noroeste 0.2 -- -- 88
2019-04-08 10:00:00 8.2 7 Noroeste 10 Noroeste 0 -- -- 89
2019-04-08 09:00:00 7.9 4 Este 9 Este 0 -- -- 89
2019-04-08 08:00:00 7.8 7 Este 17 Sudeste 0.8 -- -- 87
2019-04-08 07:00:00 7.9 13 Este 17 Este 0 -- -- 86
2019-04-08 06:00:00 8.2 13 Sudeste 25 Sudeste 0 -- -- 84
2019-04-08 05:00:00 9 18 Sudeste 26 Sudeste 0 -- -- 76
2019-04-08 04:00:00 8.7 15 Este 22 Este 0 -- -- 78
2019-04-08 03:00:00 8.7 10 Sudeste 15 Sudeste 0 -- -- 76
2019-04-08 02:00:00 8.9 8 Sudeste 16 Sudeste 0 -- -- 75
2019-04-08 01:00:00 9.1 5 Sudoeste 17 Sudeste 0 -- -- 72
2019-04-08 00:00:00 8.6 0 Calma 14 Sudeste 0 -- -- 75
2019-04-07 23:00:00 9.3 0 Calma 5 Este 0 -- -- 71
2019-04-07 22:00:00 9.6 7 Este 14 Este 0 -- -- 69
2019-04-07 21:00:00 11.1 0 Calma 11 Este 0 -- -- 59
2019-04-07 20:00:00 12.6 5 Este 10 Noroeste 0 -- -- 54
2019-04-07 19:00:00 13.6 6 Norte 13 Noroeste 0 -- -- 47
2019-04-07 18:00:00 14.1 5 Noroeste 16 Norte 0 -- -- 49
2019-04-07 17:00:00 13 13 Noroeste 26 Noroeste 0 -- -- 52
2019-04-07 16:00:00 13.4 13 Noroeste 28 Noroeste 0 -- -- 51
2019-04-07 15:00:00 12.9 19 Oeste 32 Oeste 0 -- -- 56
2019-04-07 14:00:00 11.9 12 Noroeste 25 Oeste 0 -- -- 58
2019-04-07 13:00:00 10.6 15 Noroeste 28 Noroeste 0 -- -- 62
2019-04-07 12:00:00 10 12 Oeste 24 Oeste 0 -- -- 68
2019-04-07 11:00:00 8.9 18 Oeste 27 Oeste 0 -- -- 71
2019-04-07 10:00:00 7.8 15 Oeste 22 Oeste 0 -- -- 78
2019-04-07 09:00:00 5.2 3 Sudoeste 16 Oeste 0 -- -- 88
2019-04-07 08:00:00 5.5 7 Oeste 14 Oeste 0 -- -- 88
2019-04-07 07:00:00 5.5 3 Norte 11 Noroeste 0 -- -- 92
2019-04-07 06:00:00 5.5 3 Noroeste 13 Oeste 0 -- -- 91
2019-04-07 05:00:00 5.4 6 Oeste 12 Oeste 0.2 -- -- 93
2019-04-07 04:00:00 5.6 0 Calma 7 Oeste 0.6 -- -- 92
2019-04-07 03:00:00 5.4 8 Noroeste 12 Noroeste 0 -- -- 91
2019-04-07 02:00:00 5.8 4 Sudoeste 15 Oeste 0 -- -- 85
2019-04-07 01:00:00 5.8 4 Sudoeste 13 Sudoeste 0 -- -- 89
2019-04-07 00:00:00 5.9 4 Noroeste 8 Nordeste 0 -- -- 89
2019-04-06 23:00:00 6.2 3 Norte 11 Oeste 0 -- -- 85
2019-04-06 22:00:00 7.2 10 Oeste 45 Oeste 0.2 -- -- 78
2019-04-06 21:00:00 8 35 Oeste 51 Oeste 0 -- -- 68
2019-04-06 20:00:00 10.6 6 Oeste 14 Oeste 0 -- -- 59
2019-04-06 19:00:00 11.5 8 Oeste 17 Oeste 0 -- -- 56
2019-04-06 18:00:00 12.7 4 Sudoeste 23 Oeste 0 -- -- 50
2019-04-06 17:00:00 12.6 0 Calma 33 Oeste 0 -- -- 44
2019-04-06 16:00:00 13.1 11 Oeste 30 Sudoeste 0 -- -- 48
2019-04-06 15:00:00 12.3 12 Sur 31 Sur 0 -- -- 46
2019-04-06 14:00:00 12.1 13 Sur 33 Sur 0 -- -- 54
2019-04-06 13:00:00 13.6 19 Sur 34 Sur 0 -- -- 56
2019-04-06 12:00:00 11.4 15 Sudeste 23 Sudeste 0 -- -- 68
2019-04-06 11:00:00 9.1 9 Sudeste 13 Sudeste 0 -- -- 74
2019-04-06 10:00:00 6.8 6 Sur 9 Sur 0 -- -- 84
2019-04-06 09:00:00 2.9 5 Sudeste 8 Sudeste 0 -- -- 93
2019-04-06 08:00:00 3 2 Sur 5 Norte 0 -- -- 90
2019-04-06 07:00:00 3.9 2 Este 8 Sur 0 -- -- 90
2019-04-06 06:00:00 3.7 3 Este 10 Este 0 -- -- 93
2019-04-06 05:00:00 4.4 4 Noroeste 10 Noroeste 0 -- -- 94
2019-04-06 04:00:00 4.3 0 Calma 8 Sudoeste 0 -- -- 95
2019-04-06 03:00:00 4.4 3 Sudoeste 9 Sudoeste 0 -- -- 95
2019-04-06 02:00:00 4.7 3 Sudoeste 9 Oeste 0 -- -- 95
2019-04-06 01:00:00 5.1 0 Calma 7 Noroeste 0 -- -- 94
2019-04-06 00:00:00 5.4 3 Oeste 5 Noroeste 0 -- -- 93
2019-04-05 23:00:00 5.7 3 Noroeste 14 Este 0 -- -- 93
2019-04-05 22:00:00 5.6 8 Este 14 Nordeste 0.2 -- -- 92
2019-04-05 21:00:00 5.6 6 Norte 28 Oeste 3.6 -- -- 92
2019-04-05 20:00:00 5.7 15 Oeste 46 Oeste 1.8 -- -- 91
2019-04-05 19:00:00 6.7 12 Sudoeste 48 Sudeste 2.8 -- -- 84
2019-04-05 18:00:00 11.8 29 Sudeste 48 Sudeste 0 -- -- 56
2019-04-05 17:00:00 13.1 26 Sudeste 47 Sudeste 0 -- -- 52
2019-04-05 16:00:00 11.8 38 Sudeste 46 Sudeste 0 -- -- 66
2019-04-05 15:00:00 11.4 32 Sudeste 55 Sudeste 0 -- -- 67
2019-04-05 14:00:00 10.4 32 Sudeste 45 Sudeste 0 -- -- 70
2019-04-05 13:00:00 9.8 35 Sudeste 53 Sudeste 0 -- -- 70
2019-04-05 12:00:00 10.2 36 Sudeste 61 Sudeste 0 -- -- 69
2019-04-05 11:00:00 9.8 39 Sudeste 52 Sudeste 0 -- -- 71
2019-04-05 10:00:00 8 34 Sudeste 45 Sudeste 0 -- -- 77
2019-04-05 09:00:00 7.4 32 Sudeste 50 Sudeste 0 -- -- 75
2019-04-05 08:00:00 7.9 26 Sudeste 42 Sudeste 0 -- -- 66
2019-04-05 07:00:00 7.6 32 Sudeste 55 Sudeste 0 -- -- 65
2019-04-05 06:00:00 8.2 29 Sudeste 53 Sudeste 0 -- -- 58
2019-04-05 05:00:00 8.4 27 Sudeste 43 Sudeste 0 -- -- 51
2019-04-05 04:00:00 9.1 27 Sudeste 39 Sudeste 0 -- -- 45
2019-04-05 03:00:00 8.4 17 Sudeste 25 Sudeste 0 -- -- 49
2019-04-05 02:00:00 8.3 10 Sudeste 22 Sudeste 0 -- -- 56
2019-04-05 01:00:00 10 19 Sudeste 35 Sudeste 0 -- -- 43
2019-04-05 00:00:00 10.5 22 Sudeste 39 Sur 0 -- -- 46
2019-04-04 23:00:00 10.2 16 Sudeste 39 Sudeste 0 -- -- 45
2019-04-04 22:00:00 10.2 20 Sudeste 29 Sudeste 0 -- -- 46
2019-04-04 21:00:00 9.6 14 Sudeste 30 Sudeste 0 -- -- 51
2019-04-04 20:00:00 11.4 21 Sudeste 32 Sudeste 0 -- -- 46
2019-04-04 19:00:00 12.8 18 Sudeste 31 Sudeste 0 -- -- 39
2019-04-04 18:00:00 13.9 13 Sudeste 34 Este 0 -- -- 37
2019-04-04 17:00:00 13.9 14 Sudeste 30 Sudeste 0 -- -- 36
2019-04-04 16:00:00 13.7 9 Sudoeste 26 Oeste 0 -- -- 35
2019-04-04 15:00:00 12 9 Oeste 24 Noroeste 0 -- -- 40
2019-04-04 14:00:00 11.4 14 Oeste 27 Oeste 0 -- -- 44
2019-04-04 13:00:00 9.8 8 Sudoeste 19 Sudeste 0 -- -- 49
2019-04-04 12:00:00 8.5 5 Sudoeste 15 Oeste 0 -- -- 49
2019-04-04 11:00:00 7.7 4 Sur 15 Sur 0 -- -- 57
2019-04-04 10:00:00 6 3 Este 10 Este 0 -- -- 62
2019-04-04 09:00:00 3.1 4 Este 16 Oeste 0 -- -- 75
2019-04-04 08:00:00 0.8 3 Sudeste 7 Sudoeste 0 -- -- 79
2019-04-04 07:00:00 2.1 3 Noroeste 24 Noroeste 0 -- -- 74
2019-04-04 06:00:00 2.7 17 Oeste 31 Oeste 0 -- -- 71
2019-04-04 05:00:00 2 8 Noroeste 23 Oeste 0 -- -- 77
2019-04-04 04:00:00 2 19 Noroeste 32 Oeste 0 -- -- 78
2019-04-04 03:00:00 2.6 24 Oeste 31 Oeste 0 -- -- 76
2019-04-04 02:00:00 1.1 12 Noroeste 26 Oeste 0 -- -- 82
2019-04-04 01:00:00 3.1 19 Oeste 26 Oeste 0 -- -- 74
2019-04-04 00:00:00 3.1 17 Oeste 24 Oeste 0 -- -- 73
2019-04-03 23:00:00 4.5 22 Oeste 31 Oeste 0 -- -- 63
2019-04-03 22:00:00 4.4 19 Noroeste 38 Oeste 0 -- -- 66
2019-04-03 21:00:00 5.7 25 Oeste 41 Oeste 0 -- -- 55
2019-04-03 20:00:00 7.3 23 Oeste 36 Oeste 0 -- -- 56
2019-04-03 19:00:00 8.3 26 Noroeste 46 Noroeste 0 -- -- 55
2019-04-03 18:00:00 8.5 22 Noroeste 38 Noroeste 0 -- -- 57
2019-04-03 17:00:00 9.2 29 Noroeste 48 Noroeste 0 -- -- 53
2019-04-03 16:00:00 10 41 Noroeste 57 Noroeste 0 -- -- 58
2019-04-03 15:00:00 10 24 Oeste 48 Oeste 0 -- -- 57
2019-04-03 14:00:00 10.7 26 Noroeste 41 Noroeste 0 -- -- 59
2019-04-03 13:00:00 8.7 8 Oeste 16 Oeste 0.2 -- -- 70
2019-04-03 12:00:00 7.5 5 Norte 9 Norte 0.2 -- -- 86
2019-04-03 11:00:00 7.1 0 Calma 4 Sur 0.2 -- -- 92
2019-04-03 10:00:00 6.7 2 Sudoeste 5 Sudeste 0.2 -- -- 93
2019-04-03 09:00:00 6.6 0 Calma 5 Norte 1.2 -- -- 92
2019-04-03 08:00:00 6.9 0 Calma 11 Norte 0.8 -- -- 88
2019-04-03 07:00:00 7.4 4 Norte 15 Norte 0 -- -- 83
2019-04-03 06:00:00 7.8 6 Norte 13 Noroeste 0 -- -- 85
2019-04-03 05:00:00 7.8 4 Noroeste 8 Noroeste 0 -- -- 89
2019-04-03 04:00:00 8.1 6 Noroeste 15 Noroeste 0 -- -- 86
2019-04-03 03:00:00 8.7 10 Norte 17 Norte 0 -- -- 82
2019-04-03 02:00:00 9.2 12 Norte 23 Norte 0 -- -- 79
2019-04-03 01:00:00 9.9 14 Norte 20 Norte 0 -- -- 76
2019-04-03 00:00:00 10.1 12 Norte 22 Noroeste 0 -- -- 73
2019-04-02 23:00:00 10 12 Norte 27 Norte 0 -- -- 72
2019-04-02 22:00:00 10.3 18 Norte 30 Norte 0 -- -- 69
2019-04-02 21:00:00 10.6 18 Norte 40 Norte 0 -- -- 69
2019-04-02 20:00:00 12.4 25 Norte 35 Norte 0 -- -- 64
2019-04-02 19:00:00 14.3 25 Norte 34 Norte 0 -- -- 57
2019-04-02 18:00:00 16.7 15 Norte 24 Noroeste 0 -- -- 41
2019-04-02 17:00:00 17.9 15 Noroeste 25 Norte 0 -- -- 41
2019-04-02 16:00:00 17 6 Norte 25 Noroeste 0 -- -- 45
2019-04-02 15:00:00 17.3 15 Noroeste 31 Noroeste 0 -- -- 47
2019-04-02 14:00:00 16 8 Norte 19 Norte 0 -- -- 51
2019-04-02 13:00:00 15.3 9 Noroeste 18 Noroeste 0 -- -- 57
2019-04-02 12:00:00 14.3 4 Norte 9 Este 0 -- -- 70
2019-04-02 11:00:00 11.1 2 Oeste 8 Sudeste 0 -- -- 87
2019-04-02 10:00:00 7.8 2 Noroeste 5 Noroeste 0 -- -- 98
2019-04-02 09:00:00 4.9 0 Calma 7 Noroeste 0 -- -- 98
2019-04-02 08:00:00 4.1 3 Norte 5 Noroeste 0 -- -- 97
2019-04-02 07:00:00 4.1 2 Noroeste 6 Noroeste 0 -- -- 97
2019-04-02 06:00:00 5.2 3 Noroeste 4 Noroeste 0 -- -- 95
2019-04-02 05:00:00 5.5 2 Oeste 4 Sur 0 -- -- 96
2019-04-02 04:00:00 5.7 0 Calma 4 Norte 0 -- -- 95
2019-04-02 03:00:00 6 4 Noroeste 9 Noroeste 0 -- -- 95
2019-04-02 02:00:00 7.1 5 Noroeste 6 Noroeste 0 -- -- 93
2019-04-02 01:00:00 8.1 4 Noroeste 8 Noroeste 0 -- -- 93
2019-04-02 00:00:00 8.8 7 Noroeste 10 Noroeste 0.2 -- -- 92
2019-04-01 23:00:00 10.4 3 Sudeste 8 Sudoeste 0 -- -- 90
2019-04-01 22:00:00 11.7 5 Sudeste 14 Sur 0 -- -- 87
2019-04-01 21:00:00 13.4 2 Norte 3 Oeste 0 -- -- 74
2019-04-01 20:00:00 14.1 0 Calma 7 Este 0 -- -- 69
2019-04-01 19:00:00 14.4 0 Calma 14 Sudeste 0 -- -- 67
2019-04-01 18:00:00 14.8 9 Sudeste 20 Sudeste 0 -- -- 66
2019-04-01 17:00:00 14.6 10 Sudeste 23 Sudeste 0 -- -- 67
2019-04-01 16:00:00 14.3 8 Este 19 Este 0 -- -- 68
2019-04-01 15:00:00 13.1 12 Sudeste 23 Sudeste 0 -- -- 74
2019-04-01 14:00:00 12.4 16 Sudeste 25 Sudeste 0 -- -- 78
2019-04-01 13:00:00 11.6 13 Sudeste 21 Este 0 -- -- 78
2019-04-01 12:00:00 10.5 6 Este 12 Este 0 -- -- 87
2019-04-01 11:00:00 9.5 0 Calma 6 Sur 0 -- -- 89
2019-04-01 10:00:00 8.5 0 Calma 4 Este 0 -- -- 93
2019-04-01 09:00:00 7.9 0 Calma 3 Noroeste 0 -- -- 94
2019-04-01 08:00:00 7.7 2 Sur 4 Este 0 -- -- 93
2019-04-01 07:00:00 7.9 3 Este 9 Norte 0.2 -- -- 93
2019-04-01 06:00:00 7.7 5 Norte 10 Norte 0 -- -- 94
2019-04-01 05:00:00 8 5 Norte 8 Nordeste 0 -- -- 92
2019-04-01 04:00:00 8 6 Nordeste 7 Este 0.2 -- -- 92
2019-04-01 03:00:00 8.1 4 Nordeste 7 Este 0.2 -- -- 91
2019-04-01 02:00:00 8.2 0 Calma 14 Oeste 0.6 -- -- 90
2019-04-01 01:00:00 8.8 5 Oeste 17 Sur 0.4 -- -- 85
2019-04-01 00:00:00 10 6 Sur 10 Sur 0 -- -- 67
2019-03-31 23:00:00 10.4 9 Este 14 Sudeste 0 -- -- 62
2019-03-31 22:00:00 10.8 15 Sudeste 25 Sudeste 0 -- -- 62
2019-03-31 21:00:00 11.5 16 Sudeste 22 Sur 0 -- -- 55
2019-03-31 20:00:00 12.8 12 Sudeste 21 Sur 0 -- -- 61
2019-03-31 19:00:00 13.8 16 Sur 28 Sudeste 0 -- -- 57
2019-03-31 18:00:00 14.4 20 Sudeste 34 Sudeste 0 -- -- 46
2019-03-31 17:00:00 14.7 26 Sudeste 37 Sudeste 0 -- -- 49
2019-03-31 16:00:00 17.2 18 Sudeste 29 Sudeste 0 -- -- 47
2019-03-31 15:00:00 16.6 10 Sur 22 Sur 0 -- -- 50
2019-03-31 14:00:00 14.9 4 Sudeste 16 Sur 0 -- -- 56
2019-03-31 13:00:00 13.9 7 Sur 15 Sudeste 0 -- -- 58
2019-03-31 12:00:00 12.6 5 Sur 12 Este 0 -- -- 63
2019-03-31 11:00:00 10 4 Sudeste 9 Este 0 -- -- 71
2019-03-31 10:00:00 5.5 0 Calma 4 Noroeste 0 -- -- 82
2019-03-31 09:00:00 2 4 Norte 10 Norte 0 -- -- 90
2019-03-31 08:00:00 1.7 0 Calma 8 Noroeste 0 -- -- 87
2019-03-31 07:00:00 1.8 7 Noroeste 9 Norte 0 -- -- 86
2019-03-31 06:00:00 2.7 5 Norte 8 Norte 0 -- -- 81
2019-03-31 05:00:00 4.1 2 Noroeste 8 Noroeste 0 -- -- 78
2019-03-31 03:00:00 5.8 2 Sudeste 7 Norte 0 -- -- 71
2019-03-31 01:00:00 5.3 4 Nordeste 10 Este 0 -- -- 74
2019-03-31 00:00:00 7.1 4 Este 7 Norte 0 -- -- 67
2019-03-30 23:00:00 7.5 0 Calma 6 Nordeste 0 -- -- 66
2019-03-30 22:00:00 8.5 4 Noroeste 7 Noroeste 0 -- -- 62
2019-03-30 21:00:00 10.7 4 Norte 8 Sudeste 0 -- -- 54
2019-03-30 20:00:00 12.2 6 Sudeste 17 Sudeste 0 -- -- 51
2019-03-30 19:00:00 15.5 14 Sudeste 24 Sur 0 -- -- 40
2019-03-30 18:00:00 17.3 21 Sudeste 44 Sudeste 0 -- -- 34
2019-03-30 17:00:00 18.3 22 Sudeste 32 Este 0 -- -- 34
2019-03-30 16:00:00 18.3 19 Sudeste 37 Sudeste 0 -- -- 36
2019-03-30 15:00:00 17.8 20 Sudeste 35 Este 0 -- -- 39
2019-03-30 14:00:00 17.1 25 Sudeste 35 Este 0 -- -- 41
2019-03-30 13:00:00 16.2 19 Sudeste 33 Sudeste 0 -- -- 45
2019-03-30 12:00:00 14.8 21 Sudeste 36 Sudeste 0 -- -- 48
2019-03-30 11:00:00 12.7 18 Sudeste 31 Sudeste 0 -- -- 56
2019-03-30 10:00:00 10.7 10 Sudeste 28 Sudeste 0 -- -- 64
2019-03-30 09:00:00 7.6 7 Este 10 Este 0 -- -- 68
2019-03-30 08:00:00 3.5 3 Norte 6 Noroeste 0 -- -- 80
2019-03-30 07:00:00 2.4 4 Noroeste 8 Norte 0 -- -- 80
2019-03-30 06:00:00 4.2 0 Calma 9 Sudeste 0 -- -- 74
2019-03-30 05:00:00 4.4 7 Sudeste 13 Sudeste 0 -- -- 71
2019-03-30 04:00:00 6.2 6 Sur 25 Sudeste 0 -- -- 65
2019-03-30 03:00:00 6.4 5 Sur 10 Sudeste 0 -- -- 66
2019-03-30 02:00:00 7.8 4 Sur 8 Este 0 -- -- 62
2019-03-30 01:00:00 8.5 2 Sudeste 12 Sudeste 0 -- -- 62
2019-03-30 00:00:00 8.7 4 Sudeste 18 Sudeste 0 -- -- 62
2019-03-29 23:00:00 10.4 14 Sudeste 26 Sudeste 0 -- -- 56
2019-03-29 22:00:00 11.9 18 Sudeste 37 Sudeste 0 -- -- 50
2019-03-29 21:00:00 12.6 22 Sudeste 32 Sudeste 0 -- -- 46
2019-03-29 20:00:00 13.6 20 Sudeste 38 Sudeste 0 -- -- 43
2019-03-29 19:00:00 16 30 Sudeste 48 Sudeste 0 -- -- 38
2019-03-29 18:00:00 18 31 Sudeste 56 Sudeste 0 -- -- 29
2019-03-29 17:00:00 18.9 31 Sudeste 51 Sudeste 0 -- -- 27
2019-03-29 16:00:00 19.2 36 Sudeste 48 Sudeste 0 -- -- 27
2019-03-29 15:00:00 19 34 Sudeste 53 Sudeste 0 -- -- 32
2019-03-29 14:00:00 18.2 36 Sudeste 47 Sudeste 0 -- -- 35
2019-03-29 13:00:00 17 28 Sudeste 46 Sudeste 0 -- -- 39
2019-03-29 12:00:00 15.1 33 Sudeste 46 Sudeste 0 -- -- 41
2019-03-29 11:00:00 13.5 23 Sudeste 35 Sudeste 0 -- -- 47
2019-03-29 10:00:00 10.8 8 Sur 15 Sur 0 -- -- 58
2019-03-29 09:00:00 7 5 Este 8 Sudeste 0 -- -- 68
2019-03-29 08:00:00 2.6 3 Noroeste 9 Norte 0 -- -- 87
2019-03-29 07:00:00 1.9 6 Norte 10 Norte 0 -- -- 89
2019-03-29 06:00:00 1.9 7 Norte 10 Noroeste 0 -- -- 88
2019-03-29 05:00:00 2.3 5 Noroeste 6 Noroeste 0 -- -- 85
2019-03-29 04:00:00 3.1 0 Calma 8 Norte 0 -- -- 82
2019-03-29 03:00:00 3.8 5 Nordeste 7 Norte 0 -- -- 80
2019-03-29 02:00:00 4.7 6 Noroeste 8 Noroeste 0 -- -- 75
2019-03-29 01:00:00 5.6 5 Oeste 8 Noroeste 0 -- -- 72
2019-03-29 00:00:00 5.8 5 Noroeste 8 Noroeste 0 -- -- 71
2019-03-28 23:00:00 6.6 8 Noroeste 13 Noroeste 0 -- -- 69
2019-03-28 22:00:00 6.7 11 Noroeste 16 Noroeste 0 -- -- 66
2019-03-28 21:00:00 10.2 13 Noroeste 29 Norte 0 -- -- 56
2019-03-28 20:00:00 12.1 18 Norte 30 Norte 0 -- -- 49
2019-03-28 19:00:00 14 21 Noroeste 31 Norte 0 -- -- 46
2019-03-28 18:00:00 16.1 21 Norte 30 Norte 0 -- -- 42
2019-03-28 17:00:00 17.6 16 Norte 31 Norte 0 -- -- 40
2019-03-28 16:00:00 18.1 17 Norte 33 Noroeste 0 -- -- 38
2019-03-28 15:00:00 18.1 15 Norte 28 Norte 0 -- -- 37
2019-03-28 14:00:00 17.3 13 Norte 28 Norte 0 -- -- 41
2019-03-28 13:00:00 16 15 Norte 27 Norte 0 -- -- 41
2019-03-28 12:00:00 14.6 18 Norte 30 Noroeste 0 -- -- 47
2019-03-28 11:00:00 13.4 15 Norte 25 Norte 0 -- -- 50
2019-03-28 10:00:00 11.1 4 Noroeste 6 Noroeste 0 -- -- 62
2019-03-28 09:00:00 8.8 4 Sudoeste 8 Sur 0 -- -- 73
2019-03-28 08:00:00 5.4 5 Noroeste 11 Oeste 0 -- -- 82
2019-03-28 07:00:00 4.5 8 Oeste 12 Oeste 0 -- -- 81
2019-03-28 06:00:00 4.5 2 Sur 19 Oeste 0 -- -- 82
2019-03-28 05:00:00 6 10 Oeste 27 Oeste 0 -- -- 77
2019-03-28 04:00:00 5 10 Oeste 22 Oeste 0 -- -- 80
2019-03-28 03:00:00 6 14 Oeste 40 Noroeste 0 -- -- 75
2019-03-28 02:00:00 7.2 24 Noroeste 33 Oeste 0 -- -- 71
2019-03-28 01:00:00 6.5 10 Noroeste 33 Noroeste 0 -- -- 69
2019-03-28 00:00:00 7.6 22 Noroeste 38 Oeste 0 -- -- 65
2019-03-27 23:00:00 7.3 24 Noroeste 36 Oeste 0 -- -- 66
2019-03-27 22:00:00 8.3 22 Noroeste 39 Noroeste 0 -- -- 57
2019-03-27 21:00:00 9.6 26 Noroeste 40 Noroeste 0 -- -- 50
2019-03-27 20:00:00 10.8 25 Noroeste 43 Noroeste 0 -- -- 44
2019-03-27 19:00:00 12.6 29 Norte 49 Noroeste 0 -- -- 35
2019-03-27 18:00:00 14.5 36 Noroeste 50 Norte 0 -- -- 33
2019-03-27 17:00:00 16.4 33 Norte 53 Noroeste 0 -- -- 29
2019-03-27 16:00:00 17.4 28 Norte 51 Noroeste 0 -- -- 25
2019-03-27 15:00:00 17.8 26 Norte 46 Noroeste 0 -- -- 24
2019-03-27 14:00:00 17.7 24 Norte 42 Noroeste 0 -- -- 21
2019-03-27 13:00:00 16.4 22 Norte 37 Norte 0 -- -- 25
2019-03-27 12:00:00 15.1 24 Norte 50 Noroeste 0 -- -- 26
2019-03-27 11:00:00 14.1 26 Norte 40 Noroeste 0 -- -- 30
2019-03-27 10:00:00 12.8 24 Norte 36 Norte 0 -- -- 32
2019-03-27 09:00:00 8.8 2 Sudeste 9 Oeste 0 -- -- 56
2019-03-27 08:00:00 2.9 3 Oeste 8 Noroeste 0 -- -- 66
2019-03-27 07:00:00 0.8 6 Oeste 14 Noroeste 0 -- -- 74
2019-03-27 06:00:00 1.1 10 Noroeste 13 Noroeste 0 -- -- 78
2019-03-27 05:00:00 3.5 5 Oeste 15 Sudoeste 0 -- -- 72
2019-03-27 04:00:00 3.8 8 Sudoeste 16 Sudoeste 0 -- -- 69
2019-03-27 03:00:00 5.1 8 Oeste 32 Noroeste 0 -- -- 62
2019-03-27 02:00:00 8 12 Noroeste 26 Noroeste 0 -- -- 46
2019-03-27 01:00:00 9 10 Noroeste 33 Noroeste 0 -- -- 44
2019-03-27 00:00:00 9.1 5 Oeste 48 Noroeste 0 -- -- 43